createdAt,value
2023-05-04T00:00:10.225Z,97204.91
2023-05-04T00:02:37.846Z,97196.41
2023-05-04T00:05:07.313Z,97201.00
2023-05-04T00:07:35.099Z,97192.69
2023-05-04T00:10:04.944Z,97188.63
2023-05-04T00:12:32.743Z,97183.75
2023-05-04T00:15:00.280Z,97190.88
2023-05-04T00:17:27.867Z,97187.94
2023-05-04T00:19:55.436Z,97190.91
2023-05-04T00:22:23.012Z,97183.25
2023-05-04T00:24:50.600Z,97177.75
2023-05-04T00:27:19.526Z,97176.78
2023-05-04T00:29:47.155Z,97175.50
2023-05-04T00:32:14.703Z,97175.25
2023-05-04T00:34:42.226Z,97177.38
2023-05-04T00:37:09.827Z,97166.28
2023-05-04T00:39:37.321Z,97170.06
2023-05-04T00:42:04.988Z,97172.31
2023-05-04T00:44:34.627Z,97169.38
2023-05-04T00:47:03.842Z,97173.75
2023-05-04T00:49:31.450Z,97170.19
2023-05-04T00:51:59.698Z,97172.63
2023-05-04T00:54:27.350Z,97177.00
2023-05-04T00:56:55.075Z,97182.06
2023-05-04T00:59:22.650Z,97172.63
2023-05-04T01:01:51.571Z,97170.97
2023-05-04T01:04:19.163Z,97170.97
2023-05-04T01:06:53.664Z,97171.66
2023-05-04T01:09:27.110Z,97167.34
2023-05-04T01:11:59.547Z,97171.13
2023-05-04T01:14:27.552Z,97160.19
2023-05-04T01:16:58.935Z,97154.78
2023-05-04T01:19:28.108Z,97154.16
2023-05-04T01:21:57.421Z,97150.91
2023-05-04T01:24:25.797Z,97155.13
2023-05-04T01:26:57.482Z,97155.81
2023-05-04T01:29:30.301Z,97153.91
2023-05-04T01:31:58.429Z,97156.22
2023-05-04T01:34:26.054Z,97148.41
2023-05-04T01:36:53.900Z,97151.66
2023-05-04T01:39:22.838Z,97152.97
2023-05-04T01:41:50.549Z,97148.78
2023-05-04T01:44:18.122Z,97155.34
2023-05-04T01:46:45.819Z,97153.63
2023-05-04T01:49:13.480Z,97154.28
2023-05-04T01:51:40.993Z,97151.56
2023-05-04T01:54:08.512Z,97152.28
2023-05-04T01:56:37.401Z,97152.94
2023-05-04T01:59:04.951Z,97156.50
2023-05-04T02:01:32.478Z,97160.78
2023-05-04T02:04:00.212Z,97157.50
2023-05-04T02:06:27.954Z,97160.44
2023-05-04T02:08:55.597Z,97160.44
2023-05-04T02:11:23.252Z,97165.34
2023-05-04T02:13:52.185Z,97176.97
2023-05-04T02:16:19.788Z,97164.44
2023-05-04T02:18:47.522Z,97166.06
2023-05-04T02:21:15.085Z,97170.47
2023-05-04T02:23:42.609Z,97169.00
2023-05-04T02:26:10.128Z,97169.63
2023-05-04T02:28:37.741Z,97171.91
2023-05-04T02:31:06.806Z,97169.97
2023-05-04T02:33:34.460Z,97164.59
2023-05-04T02:36:02.054Z,97169.66
2023-05-04T02:38:29.570Z,97164.28
2023-05-04T02:40:58.486Z,97168.34
2023-05-04T02:43:26.197Z,97167.38
2023-05-04T02:45:53.979Z,97160.22
2023-05-04T02:48:22.850Z,97166.06
2023-05-04T02:50:50.349Z,97161.69
2023-05-04T02:53:17.869Z,97156.50
2023-05-04T02:55:45.404Z,97160.06
2023-05-04T02:58:12.926Z,97153.53
2023-05-04T03:00:40.514Z,97150.75
2023-05-04T03:03:08.058Z,97147.69
2023-05-04T03:05:36.931Z,97152.56
2023-05-04T03:08:04.673Z,97149.16
2023-05-04T03:10:32.306Z,97145.75
2023-05-04T03:13:03.851Z,97148.16
2023-05-04T03:15:31.499Z,97141.81
2023-05-04T03:17:59.061Z,97138.25
2023-05-04T03:20:26.738Z,97145.41
2023-05-04T03:22:55.693Z,97141.97
2023-05-04T03:25:23.294Z,97138.72
2023-05-04T03:27:50.813Z,97138.06
2023-05-04T03:30:18.535Z,97140.19
2023-05-04T03:32:46.162Z,97133.81
2023-05-04T03:35:14.215Z,97133.00
2023-05-04T03:37:41.781Z,97128.94
2023-05-04T03:40:11.865Z,97135.78
2023-05-04T03:42:39.423Z,97130.25
2023-05-04T03:45:08.071Z,97126.69
2023-05-04T03:47:35.709Z,97123.44
2023-05-04T03:50:03.536Z,97132.53
2023-05-04T03:52:31.436Z,97130.09
2023-05-04T03:54:59.022Z,97136.75
2023-05-04T03:57:27.900Z,97140.81
2023-05-04T03:59:57.689Z,97136.28
2023-05-04T04:02:25.646Z,97142.97
2023-05-04T04:04:53.422Z,97135.63
2023-05-04T04:07:20.956Z,97136.59
2023-05-04T04:09:48.489Z,97135.47
2023-05-04T04:12:18.268Z,97140.69
2023-05-04T04:14:48.320Z,97141.97
2023-05-04T04:17:16.192Z,97140.38
2023-05-04T04:19:43.719Z,97141.31
2023-05-04T04:22:11.347Z,97144.25
2023-05-04T04:24:40.242Z,97133.00
2023-05-04T04:27:07.769Z,97131.06
2023-05-04T04:29:35.624Z,97133.50
2023-05-04T04:32:04.587Z,97138.38
2023-05-04T04:34:32.442Z,97141.97
2023-05-04T04:36:59.956Z,97143.94
2023-05-04T04:39:27.618Z,97147.53
2023-05-04T04:41:55.258Z,97142.97
2023-05-04T04:44:22.825Z,97140.53
2023-05-04T04:46:50.985Z,97135.97
2023-05-04T04:49:19.943Z,97143.59
2023-05-04T04:51:48.839Z,97130.91
2023-05-04T04:54:16.721Z,97138.75
2023-05-04T04:56:44.925Z,97133.69
2023-05-04T04:59:12.887Z,97138.06
2023-05-04T05:01:42.114Z,97134.16
2023-05-04T05:04:09.790Z,97130.09
2023-05-04T05:06:38.815Z,97137.06
2023-05-04T05:09:06.449Z,97135.44
2023-05-04T05:11:35.327Z,97138.38
2023-05-04T05:14:02.918Z,97139.47
2023-05-04T05:16:30.643Z,97132.81
2023-05-04T05:18:58.207Z,97130.72
2023-05-04T05:21:25.820Z,97129.88
2023-05-04T05:23:54.718Z,97133.44
2023-05-04T05:26:22.475Z,97136.00
2023-05-04T05:28:50.057Z,97128.31
2023-05-04T05:31:17.644Z,97126.22
2023-05-04T05:33:45.203Z,97127.16
2023-05-04T05:36:12.723Z,97129.72
2023-05-04T05:38:40.236Z,97124.34
2023-05-04T05:41:09.686Z,97130.69
2023-05-04T05:43:38.640Z,97133.31
2023-05-04T05:46:07.522Z,97130.38
2023-05-04T05:48:35.049Z,97139.31
2023-05-04T05:51:02.828Z,97131.97
2023-05-04T05:53:30.437Z,97138.78
2023-05-04T05:55:57.991Z,97144.34
2023-05-04T05:58:26.879Z,97130.75
2023-05-04T06:00:54.372Z,97135.81
2023-05-04T06:03:22.061Z,97127.47
2023-05-04T06:05:49.657Z,97137.41
2023-05-04T06:08:17.145Z,97138.31
2023-05-04T06:10:44.658Z,97136.19
2023-05-04T06:13:12.229Z,97130.97
2023-05-04T06:15:41.138Z,97137.28
2023-05-04T06:18:08.859Z,97131.72
2023-05-04T06:20:36.555Z,97133.03
2023-05-04T06:23:04.117Z,97138.69
2023-05-04T06:25:32.110Z,97139.16
2023-05-04T06:27:59.636Z,97134.59
2023-05-04T06:30:27.201Z,97132.41
2023-05-04T06:32:56.139Z,97136.16
2023-05-04T06:35:23.855Z,97131.38
2023-05-04T06:40:18.931Z,97127.19
2023-05-04T06:42:46.473Z,97129.28
2023-05-04T06:45:13.982Z,97127.56
2023-05-04T06:47:41.734Z,97128.72
2023-05-04T06:50:12.742Z,97126.03
2023-05-04T06:52:41.638Z,97121.34
2023-05-04T06:55:09.505Z,97117.69
2023-05-04T06:57:37.248Z,97123.44
2023-05-04T07:00:06.283Z,97117.97
2023-05-04T07:02:34.336Z,97115.06
2023-05-04T07:05:02.141Z,97119.19
2023-05-04T07:07:31.005Z,97111.25
2023-05-04T07:09:58.693Z,97116.22
2023-05-04T07:12:26.263Z,97123.59
2023-05-04T07:14:53.872Z,97121.31
2023-05-04T07:17:22.100Z,97123.66
2023-05-04T07:19:52.262Z,97121.75
2023-05-04T07:22:20.851Z,97118.63
2023-05-04T07:24:49.824Z,97110.31
2023-05-04T07:27:17.332Z,97124.34
2023-05-04T07:29:44.925Z,97123.66
2023-05-04T07:32:12.480Z,97115.09
2023-05-04T07:34:45.453Z,97123.47
2023-05-04T07:37:14.003Z,97117.88
2023-05-04T07:39:41.596Z,97109.88
2023-05-04T07:42:12.176Z,97120.44
2023-05-04T07:44:39.728Z,97119.72
2023-05-04T07:47:07.316Z,97104.25
2023-05-04T07:49:34.932Z,97110.00
2023-05-04T07:52:02.424Z,97103.56
2023-05-04T07:54:29.955Z,97113.91
2023-05-04T07:56:57.462Z,97106.09
2023-05-04T07:59:26.696Z,97108.75
2023-05-04T08:01:54.234Z,97105.97
2023-05-04T08:04:22.169Z,97102.34
2023-05-04T08:06:49.836Z,97112.09
2023-05-04T08:09:18.959Z,97111.91
2023-05-04T08:11:47.510Z,97112.72
2023-05-04T08:14:16.075Z,97112.19
2023-05-04T08:16:44.990Z,97100.81
2023-05-04T08:19:12.773Z,97107.91
2023-05-04T08:21:40.555Z,97100.81
2023-05-04T08:24:08.325Z,97109.69
2023-05-04T08:26:37.960Z,97114.94
2023-05-04T08:29:07.672Z,97114.69
2023-05-04T08:31:35.711Z,97112.00
2023-05-04T08:34:04.723Z,97127.00
2023-05-04T08:36:32.309Z,97120.28
2023-05-04T08:38:59.912Z,97114.34
2023-05-04T08:41:27.501Z,97111.63
2023-05-04T08:43:55.476Z,97121.72
2023-05-04T08:46:23.718Z,97103.59
2023-05-04T08:48:51.449Z,97114.28
2023-05-04T08:51:21.138Z,97105.47
2023-05-04T08:53:51.356Z,97100.31
2023-05-04T08:56:19.748Z,97106.16
2023-05-04T08:58:50.452Z,97094.28
2023-05-04T09:01:18.764Z,97095.06
2023-05-04T09:03:48.045Z,97106.72
2023-05-04T09:06:16.193Z,97104.19
2023-05-04T09:08:45.114Z,97098.38
2023-05-04T09:11:12.736Z,97097.91
2023-05-04T09:13:42.567Z,97091.06
2023-05-04T09:16:10.808Z,97079.03
2023-05-04T09:18:40.770Z,97090.94
2023-05-04T09:21:08.742Z,97095.72
2023-05-04T09:23:48.188Z,97083.22
2023-05-04T09:26:15.962Z,97085.56
2023-05-04T09:28:43.789Z,97083.41
2023-05-04T09:31:11.831Z,97075.63
2023-05-04T09:33:39.504Z,97083.22
2023-05-04T09:36:17.390Z,97078.69
2023-05-04T09:38:45.216Z,97079.38
2023-05-04T09:41:14.270Z,97080.97
2023-05-04T09:43:43.717Z,97077.66
2023-05-04T09:46:18.701Z,97072.25
2023-05-04T09:48:53.645Z,97072.41
2023-05-04T09:51:23.244Z,97069.53
2023-05-04T09:53:51.747Z,97069.88
2023-05-04T09:56:28.469Z,97072.41
2023-05-04T10:10:07.551Z,97044.47
2023-05-04T10:12:59.101Z,97031.50
2023-05-04T10:20:15.600Z,97036.81
2023-05-04T10:23:06.720Z,97035.31
2023-05-04T10:26:10.799Z,97030.22
2023-05-04T10:28:55.660Z,97020.75
2023-05-04T10:31:38.657Z,97022.72
2023-05-04T10:34:07.719Z,97021.59
2023-05-04T10:36:39.226Z,97017.44
2023-05-04T10:39:21.956Z,97022.84
2023-05-04T10:42:06.028Z,97018.25
2023-05-04T10:44:37.522Z,97008.81
2023-05-04T10:47:08.684Z,97009.25
2023-05-04T10:49:37.344Z,97007.06
2023-05-04T10:52:13.712Z,97007.25
2023-05-04T10:54:42.719Z,97014.38
2023-05-04T10:57:13.686Z,96999.19
2023-05-04T10:59:43.207Z,96996.72
2023-05-04T11:02:12.530Z,96998.41
2023-05-04T11:04:40.687Z,96991.59
2023-05-04T11:07:09.125Z,96990.56
2023-05-04T11:09:38.126Z,96983.41
2023-05-04T11:12:11.680Z,96983.41
2023-05-04T11:14:43.565Z,96985.84
2023-05-04T11:19:53.338Z,96979.97
2023-05-04T11:22:22.229Z,96972.47
2023-05-04T11:24:50.204Z,96979.41
2023-05-04T11:27:25.605Z,96979.47
2023-05-04T11:30:02.251Z,96973.06
2023-05-04T11:32:39.810Z,96972.53
2023-05-04T11:35:14.765Z,96965.72
2023-05-04T11:37:45.286Z,96961.44
2023-05-04T11:40:15.196Z,96963.06
2023-05-04T11:42:44.540Z,96960.31
2023-05-04T11:45:18.453Z,96962.81
2023-05-04T11:47:49.016Z,96955.97
2023-05-04T11:50:22.039Z,96953.75
2023-05-04T11:52:52.366Z,96959.22
2023-05-04T11:55:28.788Z,96952.28
2023-05-04T11:58:00.695Z,96941.22
2023-05-04T12:00:42.118Z,96957.41
2023-05-04T12:03:13.684Z,96954.50
2023-05-04T12:05:52.000Z,96952.66
2023-05-04T12:08:33.622Z,96949.59
2023-05-04T12:11:16.487Z,96946.56
2023-05-04T12:13:45.771Z,96946.84
2023-05-04T12:16:17.381Z,96946.13
2023-05-04T12:18:46.704Z,96951.69
2023-05-04T12:21:16.613Z,96947.88
2023-05-04T12:23:45.708Z,96945.69
2023-05-04T12:26:18.000Z,96951.00
2023-05-04T12:28:48.003Z,96960.50
2023-05-04T12:31:18.084Z,96954.25
2023-05-04T12:33:46.905Z,96955.53
2023-05-04T12:36:16.831Z,96945.97
2023-05-04T12:38:45.127Z,96947.09
2023-05-04T12:41:12.733Z,96947.09
2023-05-04T12:43:40.419Z,96942.59
2023-05-04T12:46:08.652Z,96943.38
2023-05-04T12:48:37.736Z,96938.31
2023-05-04T12:51:05.660Z,96930.72
2023-05-04T12:53:33.573Z,96932.97
2023-05-04T12:56:03.729Z,96928.25
2023-05-04T12:58:32.235Z,96915.63
2023-05-04T13:01:00.228Z,96912.78
2023-05-04T13:03:28.282Z,96910.44
2023-05-04T13:05:58.264Z,96907.53
2023-05-04T13:08:25.952Z,96900.50
2023-05-04T13:10:53.609Z,96900.31
2023-05-04T13:13:24.483Z,96885.47
2023-05-04T13:15:52.372Z,96889.47
2023-05-04T13:18:19.973Z,96894.00
2023-05-04T13:20:47.744Z,96892.13
2023-05-04T13:23:17.069Z,96893.75
2023-05-04T13:25:44.701Z,96886.59
2023-05-04T13:28:12.363Z,96893.50
2023-05-04T13:30:40.288Z,96887.06
2023-05-04T13:33:20.673Z,96885.47
2023-05-04T13:35:56.900Z,96879.84
2023-05-04T13:38:25.946Z,96885.31
2023-05-04T13:40:53.540Z,96870.69
2023-05-04T13:43:22.201Z,96871.47
2023-05-04T13:45:49.763Z,96874.22
2023-05-04T13:48:18.045Z,96861.97
2023-05-04T13:50:45.954Z,96860.38
2023-05-04T13:53:13.522Z,96859.25
2023-05-04T13:55:42.644Z,96845.34
2023-05-04T13:58:10.427Z,96839.44
2023-05-04T14:00:38.181Z,96842.59
2023-05-04T14:03:06.167Z,96845.50
2023-05-04T14:05:35.587Z,96831.97
2023-05-04T14:08:03.337Z,96828.75
2023-05-04T14:10:30.932Z,96827.41
2023-05-04T14:12:59.941Z,96823.41
2023-05-04T14:15:27.617Z,96809.31
2023-05-04T14:17:55.416Z,96809.56
2023-05-04T14:20:23.972Z,96811.69
2023-05-04T14:22:51.922Z,96803.72
2023-05-04T14:25:19.550Z,96805.81
2023-05-04T14:27:47.131Z,96803.91
2023-05-04T14:30:16.851Z,96798.81
2023-05-04T14:32:44.465Z,96793.50
2023-05-04T14:35:12.538Z,96795.06
2023-05-04T14:37:41.028Z,96802.97
2023-05-04T14:40:10.454Z,96791.47
2023-05-04T14:42:38.811Z,96792.22
2023-05-04T14:45:08.065Z,96788.47
2023-05-04T14:47:37.894Z,96790.56
2023-05-04T14:50:07.679Z,96783.88
2023-05-04T14:52:36.309Z,96786.00
2023-05-04T14:55:06.457Z,96784.06
2023-05-04T14:57:34.711Z,96768.63
2023-05-04T15:00:07.865Z,96777.63
2023-05-04T15:02:39.546Z,96770.91
2023-05-04T15:05:10.504Z,96775.88
2023-05-04T15:07:38.753Z,96769.47
2023-05-04T15:10:08.657Z,96764.66
2023-05-04T15:12:38.008Z,96755.31
2023-05-04T15:15:06.901Z,96752.94
2023-05-04T15:17:35.785Z,96748.94
2023-05-04T15:20:06.048Z,96749.97
2023-05-04T15:22:36.315Z,96739.59
2023-05-04T15:25:05.297Z,96739.59
2023-05-04T15:27:33.394Z,96742.50
2023-05-04T15:30:02.433Z,96729.47
2023-05-04T15:32:30.881Z,96732.63
2023-05-04T15:35:05.277Z,96731.50
2023-05-04T15:37:38.477Z,96731.75
2023-05-04T15:40:08.182Z,96733.38
2023-05-04T15:42:36.661Z,96725.66
2023-05-04T15:45:05.191Z,96732.53
2023-05-04T15:47:34.663Z,96734.16
2023-05-04T15:50:03.167Z,96735.75
2023-05-04T15:52:31.871Z,96733.09
2023-05-04T15:55:12.378Z,96730.22
2023-05-04T15:57:41.233Z,96727.81
2023-05-04T16:00:11.843Z,96735.53
2023-05-04T16:02:39.783Z,96727.00
2023-05-04T16:05:07.984Z,96728.88
2023-05-04T16:07:35.688Z,96727.50
2023-05-04T16:10:06.094Z,96723.72
2023-05-04T16:12:33.803Z,96734.81
2023-05-04T16:15:01.468Z,96721.25
2023-05-04T16:17:30.774Z,96729.13
2023-05-04T16:19:58.359Z,96725.91
2023-05-04T16:22:25.911Z,96729.63
2023-05-04T16:24:53.460Z,96733.31
2023-05-04T16:27:24.010Z,96733.00
2023-05-04T16:29:51.810Z,96730.59
2023-05-04T16:32:19.368Z,96727.94
2023-05-04T16:34:46.913Z,96734.88
2023-05-04T16:37:15.149Z,96729.56
2023-05-04T16:39:42.685Z,96725.28
2023-05-04T16:42:10.181Z,96728.44
2023-05-04T16:44:39.094Z,96719.34
2023-05-04T16:47:07.181Z,96721.69
2023-05-04T16:49:34.755Z,96722.63
2023-05-04T16:52:02.978Z,96731.56
2023-05-04T16:54:30.587Z,96729.59
2023-05-04T16:56:58.113Z,96721.59
2023-05-04T16:59:25.970Z,96723.91
2023-05-04T17:01:54.882Z,96730.50
2023-05-04T17:04:24.253Z,96728.09
2023-05-04T17:06:51.807Z,96726.72
2023-05-04T17:09:21.893Z,96730.41
2023-05-04T17:11:49.485Z,96733.63
2023-05-04T17:14:17.170Z,96735.78
2023-05-04T17:16:44.838Z,96738.44
2023-05-04T17:19:13.745Z,96734.75
2023-05-04T17:21:41.374Z,96733.13
2023-05-04T17:24:09.043Z,96735.50
2023-05-04T17:26:36.583Z,96736.50
2023-05-04T17:29:04.490Z,96733.06
2023-05-04T17:31:32.012Z,96741.25
2023-05-04T17:33:59.603Z,96742.53
2023-05-04T17:36:28.716Z,96742.53
2023-05-04T17:38:56.327Z,96737.72
2023-05-04T17:41:25.151Z,96738.97
2023-05-04T17:43:54.055Z,96739.47
2023-05-04T17:46:21.598Z,96732.25
2023-05-04T17:48:50.080Z,96731.59
2023-05-04T17:51:17.842Z,96729.09
2023-05-04T17:53:46.650Z,96732.47
2023-05-04T17:56:14.312Z,96721.78
2023-05-04T17:58:41.857Z,96719.03
2023-05-04T18:01:09.359Z,96723.22
2023-05-04T18:03:37.093Z,96717.25
2023-05-04T18:06:05.357Z,96714.47
2023-05-04T18:08:32.864Z,96714.31
2023-05-04T18:11:01.772Z,96727.66
2023-05-04T18:13:29.293Z,96723.53
2023-05-04T18:15:56.878Z,96728.16
2023-05-04T18:18:24.387Z,96727.50
2023-05-04T18:20:52.316Z,96727.94
2023-05-04T18:23:19.840Z,96733.47
2023-05-04T18:25:47.369Z,96735.78
2023-05-04T18:28:17.268Z,96736.25
2023-05-04T18:30:44.867Z,96739.38
2023-05-04T18:33:12.497Z,96745.91
2023-05-04T18:35:40.001Z,96743.28
2023-05-04T18:38:07.523Z,96746.72
2023-05-04T18:40:35.253Z,96745.34
2023-05-04T18:43:02.885Z,96751.91
2023-05-04T18:45:31.898Z,96752.34
2023-05-04T18:47:59.516Z,96748.34
2023-05-04T18:50:27.260Z,96753.28
2023-05-04T18:52:54.983Z,96757.44
2023-05-04T18:55:22.837Z,96756.50
2023-05-04T18:57:51.538Z,96758.22
2023-05-04T19:00:19.929Z,96752.94
2023-05-04T19:02:48.914Z,96754.44
2023-05-04T19:05:16.508Z,96751.66
2023-05-04T19:07:43.998Z,96758.41
2023-05-04T19:10:11.925Z,96761.53
2023-05-04T19:12:39.440Z,96764.66
2023-05-04T19:15:08.127Z,96761.41
2023-05-04T19:17:35.654Z,96768.19
2023-05-04T19:20:05.236Z,96767.03
2023-05-04T19:22:32.954Z,96766.34
2023-05-04T19:25:00.517Z,96755.88
2023-05-04T19:27:28.199Z,96767.25
2023-05-04T19:29:56.163Z,96764.34
2023-05-04T19:32:25.050Z,96773.53
2023-05-04T19:34:53.384Z,96778.72
2023-05-04T19:37:22.403Z,96773.91
2023-05-04T19:39:50.076Z,96777.56
2023-05-04T19:42:17.607Z,96780.06
2023-05-04T19:44:45.128Z,96789.91
2023-05-04T19:47:12.684Z,96781.28
2023-05-04T19:49:40.218Z,96786.44
2023-05-04T19:52:08.975Z,96783.09
2023-05-04T19:54:38.317Z,96795.78
2023-05-04T19:57:05.954Z,96788.00
2023-05-04T19:59:33.493Z,96788.53
2023-05-04T20:02:04.395Z,96794.34
2023-05-04T20:04:32.122Z,96794.38
2023-05-04T20:06:59.699Z,96797.34
2023-05-04T20:09:28.970Z,96797.19
2023-05-04T20:11:57.923Z,96792.56
2023-05-04T20:14:25.504Z,96792.63
2023-05-04T20:16:55.276Z,96796.72
2023-05-04T20:19:22.870Z,96795.78
2023-05-04T20:21:50.753Z,96787.94
2023-05-04T20:24:18.772Z,96790.88
2023-05-04T20:26:46.384Z,96792.16
2023-05-04T20:29:15.355Z,96797.25
2023-05-04T20:31:43.311Z,96787.00
2023-05-04T20:34:10.923Z,96782.19
2023-05-04T20:36:38.602Z,96787.16
2023-05-04T20:39:06.840Z,96788.59
2023-05-04T20:41:34.464Z,96788.41
2023-05-04T20:44:01.966Z,96784.19
2023-05-04T20:46:30.885Z,96794.94
2023-05-04T20:48:59.304Z,96786.88
2023-05-04T20:51:27.816Z,96778.38
2023-05-04T20:53:55.333Z,96777.19
2023-05-04T20:56:22.969Z,96789.16
2023-05-04T20:58:50.660Z,96787.38
2023-05-04T21:01:18.253Z,96773.63
2023-05-04T21:03:47.557Z,96786.19
2023-05-04T21:06:15.531Z,96776.50
2023-05-04T21:08:43.061Z,96784.59
2023-05-04T21:11:10.601Z,96781.34
2023-05-04T21:13:38.174Z,96778.72
2023-05-04T21:16:06.405Z,96781.19
2023-05-04T21:18:34.010Z,96780.59
2023-05-04T21:21:05.355Z,96776.56
2023-05-04T21:23:33.144Z,96780.41
2023-05-04T21:26:02.286Z,96776.19
2023-05-04T21:28:30.169Z,96774.56
2023-05-04T21:30:57.765Z,96770.13
2023-05-04T21:33:25.469Z,96775.38
2023-05-04T21:35:53.043Z,96770.91
2023-05-04T21:38:22.263Z,96775.59
2023-05-04T21:40:50.043Z,96781.88
2023-05-04T21:43:17.580Z,96770.97
2023-05-04T21:45:45.103Z,96768.31
2023-05-04T21:48:12.642Z,96765.91
2023-05-04T21:50:41.136Z,96768.16
2023-05-04T21:53:08.671Z,96769.81
2023-05-04T21:55:37.526Z,96773.28
2023-05-04T21:58:05.012Z,96775.91
2023-05-04T22:00:33.091Z,96770.63
2023-05-04T22:03:01.075Z,96772.66
2023-05-04T22:05:29.143Z,96775.53
2023-05-04T22:07:56.689Z,96771.47
2023-05-04T22:10:24.189Z,96775.53
2023-05-04T22:12:53.120Z,96777.34
2023-05-04T22:15:20.755Z,96778.38
2023-05-04T22:17:48.467Z,96770.84
2023-05-04T22:20:16.287Z,96775.09
2023-05-04T22:22:44.104Z,96767.41
2023-05-04T22:25:11.825Z,96776.34
2023-05-04T22:27:39.590Z,96769.44
2023-05-04T22:30:10.000Z,96770.25
2023-05-04T22:32:37.719Z,96770.25
2023-05-04T22:35:05.825Z,96772.72
2023-05-04T22:37:33.366Z,96769.47
2023-05-04T22:40:00.918Z,96771.50
2023-05-04T22:42:29.033Z,96769.47
2023-05-04T22:44:56.714Z,96771.09
2023-05-04T22:47:25.736Z,96765.84
2023-05-04T22:49:55.334Z,96770.28
2023-05-04T22:52:23.019Z,96776.75
2023-05-04T22:54:50.943Z,96769.31
2023-05-04T22:57:18.460Z,96773.16
2023-05-04T22:59:45.978Z,96776.41
2023-05-04T23:02:15.050Z,96771.13
2023-05-04T23:04:44.691Z,96774.13
2023-05-04T23:07:12.200Z,96772.09
2023-05-04T23:09:42.798Z,96772.50
2023-05-04T23:12:10.416Z,96776.97
2023-05-04T23:14:38.104Z,96776.38
2023-05-04T23:17:05.651Z,96771.94
2023-05-04T23:19:33.422Z,96763.84
2023-05-04T23:22:02.437Z,96771.50
2023-05-04T23:24:30.000Z,96765.88
2023-05-04T23:26:57.649Z,96760.22
2023-05-04T23:29:25.199Z,96767.91
2023-05-04T23:31:53.265Z,96760.81
2023-05-04T23:34:20.841Z,96748.47
2023-05-04T23:36:49.125Z,96750.13
2023-05-04T23:39:17.990Z,96748.94
2023-05-04T23:41:45.502Z,96743.28
2023-05-04T23:44:12.982Z,96748.34
2023-05-04T23:46:40.547Z,96745.75
2023-05-04T23:49:08.039Z,96738.28
2023-05-04T23:51:35.588Z,96752.22
2023-05-04T23:54:03.103Z,96742.72
2023-05-04T23:56:32.094Z,96744.94
2023-05-04T23:58:59.997Z,96743.19
